Terminal Aerodrome Forecast
Issued by NWS

Home | Current Version | Previous Version | Text Only | Print | Product List | Glossary On
Versions: 1 2 3 4 5 6 7 8 9 10 11 12 13
000
FTUS45 KABQ 200500
TAFAEG
TAF
KAEG 200520Z 2006/2106 15005KT P6SM SCT100
     FM201000 30005KT P6SM FEW015
     FM201400 36005KT P6SM SKC
     FM202000 09015G25KT P6SM SKC
     FM210500 09015G25KT P6SM SCT050 BKN080=

USA.gov is the U.S. government's official web portal to all federal, state and local government web resources and services.